Aeroporto :
LOGIN :

Iscrizione | Disclaimer

   EN    FR    IT 

 










Sommario :    VFR   VFR Marginale   IFR   IFR Intensivo   IFR Molto Intensivo
Visibilità : 
Base nubi : 
>= 8 km
>= 3000ft
5 / 8 km
1000 / 3000 ft
1500m / 5 km
500 / 1000 ft
800 / 1500m
200 / 500 ft
< 800m
< 200 ft
Simboli :   Temporali  Nebbia  Neve Forte  Precipitazioni Forti  Vento > 20 kt
SIGMETs :   Varie  Temporali  Ghiacco  Turbolenza  Onda orograficha  Ceneri Vulcaniche






- Altitudine del aeroporto : 510 ft


LJCE - Cerklje

ULTIMO METAR :
  • 271430Z 14003KT 090V200 CAVOK 25/13 Q1017 RMK BLU

METARs OBSOLETI :
  • 271400Z 22004KT 190V280 CAVOK 25/12 Q1017 RMK BLU
  • 271330Z 15003KT 080V210 CAVOK 24/10 Q1017 RMK BLU
  • 271300Z 11004KT 060V140 9999 VCSH SCT043TCU 24/12 Q1018 RMK BLU
  • 271230Z 18004KT 9999 VCSH SCT040TCU 24/13 Q1018 RMK BLU
  • 271200Z 16004KT 110V210 9999 VCSH SCT040TCU 24/14 Q1018 RMK BLU
  • 271130Z 22001KT 9999 SCT030TCU 24/15 Q1019 RMK BLU
  • 271100Z 24002KT 9999 SCT030TCU 23/16 Q1019 RMK BLU
  • 271030Z VRB02KT 9999 VCTS SCT030CB 23/15 Q1019 RMK BLU
  • 271000Z VRB01KT 9999 SCT027 23/14 Q1020 RMK BLU

TAF TAF LJCE
Valido dal 27 a 15 ore il 28 a 00 ore UTC


271400Z 2715/2800 17005KT CAVOK
PROB40
TEMPO 2715/2717 -SHRA FEW030TCU
PROB30
TEMPO 2715/2716 5000 TSRA FEW030CB



MetMap, La meteo Aeronautica in un colpo d'occhio ! - Copyright ORBIFLY Dicembre 2007 - Disclaimer

ORBIFLY MET'MAP TEAM :

Programmazione e sviluppo : Alexandra Zaïnal
Concezione : Baudouin d'Aumeries
Supporto tecnico e logistico : Manuel Goepfert
Aiuto : Marc-Olivier Méhu
Aiuto per la traduzione : Arnaldo La Scala




FONTI E CREDITI :

   NOAA